CW4299 Treasure Island FL US current weather conditions

sailwx.info

Wind from 360 at 6 knots gusting 12

Air temperature 11.7° C
Dewpoint 9.4° C

Last reported at 2020-Jan-23 04:01 UTC.
Time now 2020-Jan-23 04:33 UTC

Location: N 27°46' W 082°46'.
View on Google Maps.

See reports from other nearby stations

  
Tides and Currents Weather Stations Pressure Air Temp Water Temp Dewpoint Dewpoint Depression Visibility Wind Speed Wind Dir Waves Ship Positions
date/time (UTC)wind fromknots sea level pressurealtimeterstation pressurevisibilityair tempwater tempwave heightnotes
2020-Jan-23 04:01 360 6 gusting 12 11.7
2020-Jan-23 03:46 012 7 gusting 16 11.7
2020-Jan-23 03:32 009 6 gusting 14 11.7
2020-Jan-23 03:17 037 6 gusting 14 11.7
2020-Jan-23 03:02 032 3 gusting 11 11.7
2020-Jan-23 02:47 345 6 gusting 13 11.7
2020-Jan-23 02:31 360 9 gusting 17 12.2
2020-Jan-23 02:16 360 5 gusting 12 12.2
2020-Jan-23 02:01 008 7 gusting 13 12.2
2020-Jan-23 01:46 020 2 gusting 11 12.8
2020-Jan-23 01:31 013 2 gusting 10 12.8
2020-Jan-23 01:16 030 1 gusting 9 12.8
2020-Jan-23 01:01 015 0 gusting 8 12.2
2020-Jan-23 00:46 360 12.2
2020-Jan-23 00:30 345 12.2
2020-Jan-23 00:15 011 4 gusting 7 12.2
2020-Jan-23 00:01 334 2 gusting 10 12.2
2020-Jan-22 23:45 332 0 gusting 9 12.2
2020-Jan-22 23:30 322 3 gusting 9 11.7
2020-Jan-22 23:15 330 0 gusting 8 11.7
2020-Jan-22 23:00 341 4 gusting 13 11.7
2020-Jan-22 22:45 337 6 gusting 14 11.7
2020-Jan-22 22:30 307 7 gusting 13 11.7
2020-Jan-22 22:15 327 6 gusting 13 11.7
2020-Jan-22 22:01 344 4 gusting 13 11.7
2020-Jan-22 21:45 339 6 gusting 13 11.7
2020-Jan-22 21:30 328 6 gusting 12 11.7
2020-Jan-22 21:15 321 1 gusting 10 11.7
2020-Jan-22 21:00 321 11.7
2020-Jan-22 20:45 357 5 gusting 13 11.7
2020-Jan-22 20:30 009 2 gusting 9 11.7
2020-Jan-22 20:15 352 5 gusting 11 11.1
2020-Jan-22 20:00 339 2 gusting 10 10.6
2020-Jan-22 19:45 321 5 gusting 13 10.6
2020-Jan-22 19:30 310 1 gusting 10 10.6
2020-Jan-22 19:15 321 6 gusting 10 10.6
2020-Jan-22 19:03 332 2 gusting 13 10.0
2020-Jan-22 18:47 314 2 gusting 10 10.6
2020-Jan-22 18:32 289 1 gusting 11 10.0
2020-Jan-22 18:16 325 1 gusting 11 10.0
2020-Jan-22 18:02 296 3 gusting 11 10.0
2020-Jan-22 17:46 327 10.0
2020-Jan-22 17:32 358 10.0
2020-Jan-22 17:17 316 9.4
2020-Jan-22 17:02 010 9.4
2020-Jan-22 16:46 334 8.9
2020-Jan-22 16:31 337 2 gusting 8 8.3
2020-Jan-22 16:16 348 1 gusting 8 8.3
2020-Jan-22 16:00 315 2 gusting 9 7.8
2020-Jan-22 15:46 346 1 gusting 11 7.2
2020-Jan-22 15:31 328 0 gusting 9 7.2
2020-Jan-22 15:15 018 4 gusting 8 6.7
2020-Jan-22 15:00 349 2 gusting 8 6.1
2020-Jan-22 14:45 053 4 gusting 12 6.1
2020-Jan-22 14:30 323 10 gusting 14 5.6
2020-Jan-22 14:15 342 6 gusting 12 5.0
2020-Jan-22 14:00 330 5 gusting 10 4.4
2020-Jan-22 13:45 321 1 gusting 8 3.9
2020-Jan-22 13:30 338 6 gusting 10 3.9
2020-Jan-22 13:15 300 0 gusting 8 3.3
2020-Jan-22 13:00 359 0 gusting 8 3.3
2020-Jan-22 12:45 025 2.8
2020-Jan-22 12:30
2020-Jan-22 12:16
2020-Jan-22 12:02
2020-Jan-22 11:47
2020-Jan-22 11:31
2020-Jan-22 11:16
2020-Jan-22 11:01
2020-Jan-22 10:46
2020-Jan-22 10:31
2020-Jan-22 10:16
2020-Jan-22 10:00
2020-Jan-22 09:46
2020-Jan-22 09:15
2020-Jan-22 09:00
2020-Jan-22 08:47
2020-Jan-22 08:31
2020-Jan-22 08:16
2020-Jan-22 08:01
2020-Jan-22 07:47
2020-Jan-22 07:31
2020-Jan-22 07:15
2020-Jan-22 07:00
2020-Jan-22 06:46
2020-Jan-22 06:30
2020-Jan-22 06:16 354 13 gusting 19 5.0
2020-Jan-22 06:00 012 12 gusting 20 5.0
2020-Jan-22 05:45 011 11 gusting 18 5.0
2020-Jan-22 05:30 333 10 gusting 19 5.0
2020-Jan-22 05:15 340 13 gusting 18 5.0
2020-Jan-22 05:00 353 10 gusting 19 5.6
2020-Jan-22 04:45 039 11 gusting 19 5.6
2020-Jan-22 04:30 348 11 gusting 18 5.6
2020-Jan-22 04:17 019 10 gusting 15 6.1
2020-Jan-22 04:02 018 10 gusting 18 6.1
2020-Jan-22 03:48 008 10 gusting 17 6.1
2020-Jan-22 03:32 004 11 gusting 18 6.7
2020-Jan-22 03:18 358 10 gusting 18 6.7
2020-Jan-22 03:02 022 10 gusting 14 6.7
2020-Jan-22 02:47 011 12 gusting 18 7.2
2020-Jan-22 02:31 352 8 gusting 16 7.2
2020-Jan-22 02:16 354 13 gusting 19 7.2
2020-Jan-22 02:01 335 6 gusting 19 7.8
2020-Jan-22 01:46 358 8 gusting 15 7.8
2020-Jan-22 01:33 006 11 gusting 19 7.8
2020-Jan-22 01:16 009 10 gusting 17 8.3
2020-Jan-22 01:01 340 3 gusting 14 8.3
2020-Jan-22 00:47 009 9 gusting 16 8.3
2020-Jan-22 00:33 008 9 gusting 14 8.3
2020-Jan-22 00:16 346 7 gusting 13 8.9
2020-Jan-22 00:01 004 6 gusting 14 8.9
2020-Jan-21 23:45 340 7 gusting 14 8.9
2020-Jan-21 23:31 307 7 gusting 15 8.9
2020-Jan-21 23:16 331 5 gusting 14 8.9
2020-Jan-21 23:02 339 11 gusting 19 8.9
2020-Jan-21 22:47 322 8 gusting 15 8.9
2020-Jan-21 22:31 341 8 gusting 15 9.4
2020-Jan-21 22:15 322 11 gusting 19 9.4
2020-Jan-21 22:01 338 10 gusting 19 9.4
2020-Jan-21 21:46 341 11 gusting 21 9.4
2020-Jan-21 21:32 329 9 gusting 18 9.4
2020-Jan-21 21:16 356 12 gusting 19 9.4
2020-Jan-21 21:00 328 10 gusting 20 9.4
2020-Jan-21 20:45 324 13 gusting 22 9.4
2020-Jan-21 20:30 330 11 gusting 19 9.4
2020-Jan-21 20:17 306 12 gusting 21 9.4
2020-Jan-21 20:00 342 11 gusting 26 9.4
2020-Jan-21 19:45 326 12 gusting 18 10.0
2020-Jan-21 19:30 295 12 gusting 23 10.0
2020-Jan-21 19:17 338 8 gusting 25 9.4
2020-Jan-21 19:01 332 12 gusting 23 9.4
2020-Jan-21 18:46 342 15 gusting 22 9.4
2020-Jan-21 18:30 346 14 gusting 21 9.4
2020-Jan-21 18:15 319 9 gusting 22 9.4
2020-Jan-21 18:00 359 12 gusting 19 9.4
2020-Jan-21 17:45 346 13 gusting 23 9.4
2020-Jan-21 17:31 352 10 gusting 22 9.4
2020-Jan-21 17:15 340 13 gusting 21 9.4
2020-Jan-21 17:00 333 10 gusting 20 9.4
2020-Jan-21 16:45 313 10 gusting 19 10.0
2020-Jan-21 16:31 326 11 gusting 21 10.0
2020-Jan-21 16:16 311 13 gusting 19 10.0
2020-Jan-21 16:00 300 10 gusting 19 9.4
2020-Jan-21 15:45 358 8 gusting 16 9.4
2020-Jan-21 15:30 335 9 gusting 16 9.4
2020-Jan-21 15:15 315 7 gusting 13 9.4
2020-Jan-21 15:00 352 7 gusting 13 8.9
2020-Jan-21 14:45 028 7 gusting 14 8.9
2020-Jan-21 14:30 359 8 gusting 14 8.9
2020-Jan-21 14:15 316 6 gusting 13 8.3
2020-Jan-21 14:01 351 7 gusting 14 7.8
2020-Jan-21 13:47 011 4 gusting 13 7.2
2020-Jan-21 13:32 013 6 gusting 13 7.2
2020-Jan-21 13:18 323 7 gusting 13 6.7
2020-Jan-21 13:01 354 4 gusting 12 6.1
2020-Jan-21 12:46
2020-Jan-21 12:31
2020-Jan-21 12:16
2020-Jan-21 12:00
2020-Jan-21 11:45
2020-Jan-21 11:30
2020-Jan-21 11:15
2020-Jan-21 11:00
2020-Jan-21 10:45
2020-Jan-21 10:30
2020-Jan-21 10:15
2020-Jan-21 10:02
2020-Jan-21 09:47
2020-Jan-21 09:32
2020-Jan-21 09:18
2020-Jan-21 09:01
2020-Jan-21 08:46
2020-Jan-21 08:31
2020-Jan-21 08:16
2020-Jan-21 08:00
2020-Jan-21 07:46
2020-Jan-21 07:30
2020-Jan-21 07:15
2020-Jan-21 07:00
2020-Jan-21 06:45
2020-Jan-21 06:30
2020-Jan-21 06:17 003 4 gusting 11 9.4
2020-Jan-21 06:02 001 1 gusting 8 9.4
2020-Jan-21 05:47 026 6 gusting 13 10.0
2020-Jan-21 05:33 011 4 gusting 10 10.0
2020-Jan-21 05:17 309 4 gusting 11 10.0
2020-Jan-21 05:02 007 4 gusting 12 10.0
2020-Jan-21 04:46 039 2 gusting 11 10.6
2020-Jan-21 04:31 342 4 gusting 12 10.6
2020-Jan-21 04:16 020 1 gusting 13 10.6
2020-Jan-21 04:01 033 4 gusting 10 11.1